Address 0x6080303e9baf908fcdc8153998c1a0a9beb472b0

 
Txn Hash Method
Block
From
To
Value [Txn Fee]
0x30569052ce160ba125f38bd2cfa03ae3a86bd117125a4fa592a10a8a7eb490bbExecute Meta Tra...204863142021-10-22 11:53:0029 mins ago0x6080303e9baf908fcdc8153998c1a0a9beb472b0OUT 0x89aac1f5ccdd54dd8a09e5c858f19a665e4fa32b0 MATIC0.00642501
0x2c5ddfd2eb1d1dba1a7112c7758ff693b9b420c0dc41e1e90454324f8cdd9908Execute Meta Tra...204855952021-10-22 11:20:331 hr 2 mins ago0x6080303e9baf908fcdc8153998c1a0a9beb472b0OUT 0x89aac1f5ccdd54dd8a09e5c858f19a665e4fa32b0 MATIC0.00642537
0xd12b0c24e3a449776c3f630a7f18496a8bebdb534884aaee434b54acdbfbeed3Execute Meta Tra...204851362021-10-22 11:02:171 hr 20 mins ago0x6080303e9baf908fcdc8153998c1a0a9beb472b0OUT 0x89aac1f5ccdd54dd8a09e5c858f19a665e4fa32b0 MATIC0.01070895
0xb6cc0d18d049c96c1db21963bc9f0d53af853af8d009d7e7d0ec971488fe877dExecute Meta Tra...204846412021-10-22 10:42:331 hr 40 mins ago0x6080303e9baf908fcdc8153998c1a0a9beb472b0OUT 0x89aac1f5ccdd54dd8a09e5c858f19a665e4fa32b0 MATIC0.00693801
0xdb7d2219875510d04da7e803833a9d8a0ff38d12e02cf916b506926ea7b1834aExecute Meta Tra...204841212021-10-22 10:24:331 hr 58 mins ago0x6080303e9baf908fcdc8153998c1a0a9beb472b0OUT 0x89aac1f5ccdd54dd8a09e5c858f19a665e4fa32b0 MATIC0.01070835
0xe085607a7e9de6f555203a7fbcb6a5d5688d9e97a0001f8086a8c7479a00f1140x41706c4e204837582021-10-22 10:09:552 hrs 12 mins ago0x6080303e9baf908fcdc8153998c1a0a9beb472b0OUT 0x86c80a8aa58e0a4fa09a69624c31ab2a6cad56b80 MATIC0.003914568
0x18e693d12fccde0c9d9553e6dd6e3273d1a2b1b8f1d50e320a7871eb2b45c06aExecute Meta Tra...204833152021-10-22 9:53:572 hrs 28 mins ago0x6080303e9baf908fcdc8153998c1a0a9beb472b0OUT 0x4e7a0681545e606845905ad6ba931e47bfc3a75b0 MATIC0.00100407
0x9e2950265832716db71417c62ad2ace3fd5aad1a8e5336f43147c613e5d6a4f5Execute Meta Tra...204829452021-10-22 9:37:292 hrs 45 mins ago0x6080303e9baf908fcdc8153998c1a0a9beb472b0OUT 0x89aac1f5ccdd54dd8a09e5c858f19a665e4fa32b0 MATIC0.00642537
0xc8c7e043caff7ba4df23ff8f0f7b334397c4c0d4b2dd168b24bd2524699b74c1Execute Meta Tra...204825242021-10-22 9:18:393 hrs 4 mins ago0x6080303e9baf908fcdc8153998c1a0a9beb472b0OUT 0x89aac1f5ccdd54dd8a09e5c858f19a665e4fa32b0 MATIC0.00642537
0x5089f0060edd2263e276189215df939cf5fcbe6293542ea2701426cfe1393c27Execute Meta Tra...204820262021-10-22 8:59:233 hrs 23 mins ago0x6080303e9baf908fcdc8153998c1a0a9beb472b0OUT 0x89aac1f5ccdd54dd8a09e5c858f19a665e4fa32b0 MATIC0.01070835
0x3f48f5a5f499766b81a37471b9de21295b734b9143e7d1367b5a48b1f8277fd5Execute Meta Tra...204815322021-10-22 8:40:093 hrs 42 mins ago0x6080303e9baf908fcdc8153998c1a0a9beb472b0OUT 0x89aac1f5ccdd54dd8a09e5c858f19a665e4fa32b0 MATIC0.00642465
0xb27a2d2031cf77fe23a9b4cd04d6ea0c0f412048be511de8e975e7e08e051addExecute Meta Tra...204810902021-10-22 8:20:384 hrs 2 mins ago0x6080303e9baf908fcdc8153998c1a0a9beb472b0OUT 0x7adbced399630dd11a97f2e2dc206911167071ae0 MATIC0.00611041
0xf6df71fc70cb3b2f80f3f4d3bbde6817e87abe138ccd2fc9c5909a36523d7fd5Execute Meta Tra...204806702021-10-22 8:01:484 hrs 21 mins ago0x6080303e9baf908fcdc8153998c1a0a9beb472b0OUT 0x89aac1f5ccdd54dd8a09e5c858f19a665e4fa32b0 MATIC0.01070715
0x2f17c38b0862426aa44347063a000fde8711f4a4adf09ac0a62c94e5d5054eb9Execute Meta Tra...204801702021-10-22 7:42:284 hrs 40 mins ago0x6080303e9baf908fcdc8153998c1a0a9beb472b0OUT 0x89aac1f5ccdd54dd8a09e5c858f19a665e4fa32b0 MATIC0.009636435
0xe6fffdfee42cd86f2c4429f406c688497c738a3f81d6b0fd902192fca946ad89Execute Meta Tra...204797262021-10-22 7:25:044 hrs 57 mins ago0x6080303e9baf908fcdc8153998c1a0a9beb472b0OUT 0x89aac1f5ccdd54dd8a09e5c858f19a665e4fa32b0 MATIC0.006639177
0x8d4276c40b7c4bf24ff1e9e25076bc6d62f736a98af6de8319cf8f0e385e93c9Execute Meta Tra...204792932021-10-22 7:05:545 hrs 16 mins ago0x6080303e9baf908fcdc8153998c1a0a9beb472b0OUT 0x89aac1f5ccdd54dd8a09e5c858f19a665e4fa32b0 MATIC0.007067511
0x81a754e358d57975918abb0b4a830febabb0b5a1cc89d15b4f6ac843befe98f5Execute Meta Tra...204783702021-10-22 6:29:295 hrs 53 mins ago0x6080303e9baf908fcdc8153998c1a0a9beb472b0OUT 0xeda1f66f5c765ac16b4333c53f3f83f781d01c8b0 MATIC0.04100895
0x1874d0b8e34f015574184a09b7c746261097d9679f8a57dc43e312e2c182ff1c0x41706c4e204779882021-10-22 6:15:276 hrs 7 mins ago0x6080303e9baf908fcdc8153998c1a0a9beb472b0OUT 0x86c80a8aa58e0a4fa09a69624c31ab2a6cad56b80 MATIC0.00340914
0xe1ae02b361510abac3543b123c37eb82444579a21133e4d14739efb20d234bb7Execute Meta Tra...204769542021-10-22 5:34:256 hrs 48 mins ago0x6080303e9baf908fcdc8153998c1a0a9beb472b0OUT 0x89aac1f5ccdd54dd8a09e5c858f19a665e4fa32b0 MATIC0.007496265
0x7e7eab028f1a8564c5bf810de976965145db1ddf18003efce571b1dad352ab42Execute Meta Tra...204764322021-10-22 5:14:217 hrs 8 mins ago0x6080303e9baf908fcdc8153998c1a0a9beb472b0OUT USD Coin0 MATIC0.003634206
0x51d5cdba3bf968f09b7a6a96d07605ea60d739ade03c5f82c579473d19cdfa42Execute Meta Tra...204760962021-10-22 4:58:357 hrs 24 mins ago0x6080303e9baf908fcdc8153998c1a0a9beb472b0OUT 0x89aac1f5ccdd54dd8a09e5c858f19a665e4fa32b0 MATIC0.00642501
0x79620d165842f034686065b69954d94d422704f2dc30430076d77344973abd6eExecute Meta Tra...204752112021-10-22 4:24:157 hrs 58 mins ago0x6080303e9baf908fcdc8153998c1a0a9beb472b0OUT 0x89aac1f5ccdd54dd8a09e5c858f19a665e4fa32b0 MATIC0.00642537
0xb38d60987519228430a46b8679e7fe064b43a326aac0fd85368561e02357d00eExecute Meta Tra...204748982021-10-22 4:10:578 hrs 11 mins ago0x6080303e9baf908fcdc8153998c1a0a9beb472b0OUT 0x89aac1f5ccdd54dd8a09e5c858f19a665e4fa32b0 MATIC0.00642537
0xa8008c01af7d1e6fed8038a6c006dc2f605431575dd11ed4013f860db579a002Exec Transaction204744922021-10-22 3:54:498 hrs 28 mins ago0x6080303e9baf908fcdc8153998c1a0a9beb472b0OUT 0x4857ed4a64298af26f9f79bf2b62af9e96a2467d0 MATIC0.0434363
0x6c1517c667495914e084cf3bf3e99c084f4ef1f16a9fad1019b0ff2446e0a083Execute Meta Tra...204737682021-10-22 3:27:498 hrs 55 mins ago0x6080303e9baf908fcdc8153998c1a0a9beb472b0OUT 0x89aac1f5ccdd54dd8a09e5c858f19a665e4fa32b0 MATIC0.00642537
[ Download CSV Export 
Parent Txn Hash Block From To Value
Loading

Contract Name:
0 MATIC

Compiler Version
0

Optimization Enabled:
0 MATIC

Other Settings:
-NA-
Block Transaction Gas Used Reward
Age Block Fee Address BC Fee Address Voting Power Jailed Incoming
Block Uncle Number Difficulty Gas Used Reward
Loading
Loading
Make sure to use the "Vote Down" button for any spammy posts, and the "Vote Up" for interesting conversations.